Arcadia, Iowa
Current Conditions -  °F | °C
As of 10:15 PM on Friday 31 Oct 2014 (Local Time) from KCIN Reporting Station
Clear Clear  
Wind Chill: 23°   Ceiling: Unl
Heat Index: 23°   Visibility: 10mi
Dew Point: 19°   Wind: 3mph
Humidity: 86%   Direction: 290°WNW
Pressure: 30.47"   Gusts: NA
Location:  42.09°N, 95.05°W
Report Text: KCIN 010315Z AUTO 29003KT 10SM CLR M05/M07 A3047 RMK AO2
Loading
Personal Weather Stations






























Interactive Weather Map
Tropical Storm Tracking
New forecast layout! Learn more

10-Day Weather Forecast

Advertisements
Track Severe Weather on mobile